aviador You're here:

TFFF Decoded Metar

FORT-DE-FRANCE in ANTILLES
Report Time2017-09-24 22:30:00
UTC Time2017-09-24 23:03:24
Flight Rules vfr VFR
Wind130° at 01 kt
W.Decomp.*RWY 10: 0.7 kt HW 0.7 kt RCW
W.Rank130° ranks 12
Current wind is below 130° avg. (5.9)
Visibility9999 m
Phenomena:Thuderstorm Rain
Clouds:N/A
Expected CloudBase > 1,200 ft AGL from Temp-Dew spread
CeilingNone
Temp27°C (ISA +12)
Dew Point24°C (84% RH)
Heat Index30.1°C
QNH1014 hPa
Density Alt1,762 ft
Elevation16 ft
Report Wrong Elevation
Raw Report
METAR TFFF 242230Z AUTO 13001KT CAVOK 27/24 Q1014 TEMPO 2500 TSRA SCT015CB=

Extra information for TFFF:More info

Metar Taf Metar & Taf Last 4 Metars F.Rules Stats Wind Profile Meteogram Temp Stats Airport Information Weather charts Add Link Nearby VenuesMetar ALERT Operation Metar Decoded Social comments